sensor_id;sensor_type;location;lat;lon;timestamp;P1;durP1;ratioP1;P2;durP2;ratioP2
31126;SDS011;17775;57.948;12.514;2023-05-10T00:00:02;3.75;;;2.47;;
31126;SDS011;17775;57.948;12.514;2023-05-10T00:02:31;5.90;;;3.22;;
31126;SDS011;17775;57.948;12.514;2023-05-10T00:04:57;7.35;;;2.70;;
31126;SDS011;17775;57.948;12.514;2023-05-10T00:07:24;4.20;;;2.70;;
31126;SDS011;17775;57.948;12.514;2023-05-10T00:09:51;4.45;;;2.78;;
31126;SDS011;17775;57.948;12.514;2023-05-10T00:12:17;4.05;;;2.90;;
31126;SDS011;17775;57.948;12.514;2023-05-10T00:14:44;5.03;;;2.28;;
31126;SDS011;17775;57.948;12.514;2023-05-10T00:17:11;5.68;;;2.83;;
31126;SDS011;17775;57.948;12.514;2023-05-10T00:19:37;6.88;;;2.72;;
31126;SDS011;17775;57.948;12.514;2023-05-10T00:22:04;8.15;;;3.20;;
31126;SDS011;17775;57.948;12.514;2023-05-10T00:24:30;6.43;;;2.50;;
31126;SDS011;17775;57.948;12.514;2023-05-10T00:26:56;5.78;;;2.40;;
31126;SDS011;17775;57.948;12.514;2023-05-10T00:29:23;4.32;;;2.60;;
31126;SDS011;17775;57.948;12.514;2023-05-10T00:31:50;6.20;;;2.75;;
31126;SDS011;17775;57.948;12.514;2023-05-10T00:34:18;7.68;;;3.03;;
31126;SDS011;17775;57.948;12.514;2023-05-10T00:36:44;7.68;;;3.10;;
31126;SDS011;17775;57.948;12.514;2023-05-10T00:39:11;7.63;;;2.95;;
31126;SDS011;17775;57.948;12.514;2023-05-10T00:41:37;6.63;;;2.70;;
31126;SDS011;17775;57.948;12.514;2023-05-10T00:44:03;4.72;;;2.70;;
31126;SDS011;17775;57.948;12.514;2023-05-10T00:46:30;5.57;;;2.78;;
31126;SDS011;17775;57.948;12.514;2023-05-10T00:48:57;5.43;;;3.00;;
31126;SDS011;17775;57.948;12.514;2023-05-10T00:51:24;7.38;;;2.65;;
31126;SDS011;17775;57.948;12.514;2023-05-10T00:53:50;5.50;;;2.75;;
31126;SDS011;17775;57.948;12.514;2023-05-10T00:56:17;9.10;;;2.97;;
31126;SDS011;17775;57.948;12.514;2023-05-10T00:58:43;5.57;;;2.65;;
31126;SDS011;17775;57.948;12.514;2023-05-10T01:01:10;4.72;;;2.83;;
31126;SDS011;17775;57.948;12.514;2023-05-10T01:03:37;5.68;;;3.00;;
31126;SDS011;17775;57.948;12.514;2023-05-10T01:06:03;4.72;;;2.70;;
31126;SDS011;17775;57.948;12.514;2023-05-10T01:08:30;9.55;;;2.70;;
31126;SDS011;17775;57.948;12.514;2023-05-10T01:10:56;7.97;;;2.95;;
31126;SDS011;17775;57.948;12.514;2023-05-10T01:13:29;9.57;;;2.72;;
31126;SDS011;17775;57.948;12.514;2023-05-10T01:15:56;5.40;;;2.70;;
31126;SDS011;17775;57.948;12.514;2023-05-10T01:18:23;6.57;;;3.17;;
31126;SDS011;17775;57.948;12.514;2023-05-10T01:20:53;7.55;;;3.88;;
31126;SDS011;17775;57.948;12.514;2023-05-10T01:26:07;4.22;;;2.60;;
31126;SDS011;17775;57.948;12.514;2023-05-10T01:33:43;5.82;;;3.03;;
31126;SDS011;17775;57.948;12.514;2023-05-10T01:36:21;5.35;;;2.97;;
31126;SDS011;17775;57.948;12.514;2023-05-10T01:44:16;4.88;;;2.85;;
31126;SDS011;17775;57.948;12.514;2023-05-10T01:49:22;5.75;;;2.35;;
31126;SDS011;17775;57.948;12.514;2023-05-10T01:51:52;7.32;;;2.67;;
31126;SDS011;17775;57.948;12.514;2023-05-10T01:54:21;3.90;;;2.50;;
31126;SDS011;17775;57.948;12.514;2023-05-10T01:56:51;6.60;;;2.90;;
31126;SDS011;17775;57.948;12.514;2023-05-10T01:59:18;7.43;;;3.00;;
31126;SDS011;17775;57.948;12.514;2023-05-10T02:01:46;4.15;;;2.80;;
31126;SDS011;17775;57.948;12.514;2023-05-10T02:04:14;5.00;;;2.65;;
31126;SDS011;17775;57.948;12.514;2023-05-10T02:06:42;4.25;;;2.50;;
31126;SDS011;17775;57.948;12.514;2023-05-10T02:09:10;4.65;;;2.80;;
31126;SDS011;17775;57.948;12.514;2023-05-10T02:11:39;7.40;;;3.20;;
31126;SDS011;17775;57.948;12.514;2023-05-10T02:14:07;5.60;;;2.88;;
31126;SDS011;17775;57.948;12.514;2023-05-10T02:16:35;4.78;;;2.40;;
31126;SDS011;17775;57.948;12.514;2023-05-10T02:19:02;6.65;;;3.78;;
31126;SDS011;17775;57.948;12.514;2023-05-10T02:21:29;8.88;;;3.58;;
31126;SDS011;17775;57.948;12.514;2023-05-10T02:23:57;7.32;;;3.28;;
31126;SDS011;17775;57.948;12.514;2023-05-10T02:26:24;7.70;;;2.72;;
31126;SDS011;17775;57.948;12.514;2023-05-10T02:28:51;5.13;;;2.92;;
31126;SDS011;17775;57.948;12.514;2023-05-10T02:31:19;5.30;;;2.65;;
31126;SDS011;17775;57.948;12.514;2023-05-10T02:33:45;6.97;;;3.25;;
31126;SDS011;17775;57.948;12.514;2023-05-10T02:36:13;5.65;;;3.22;;
31126;SDS011;17775;57.948;12.514;2023-05-10T02:38:40;5.95;;;2.70;;
31126;SDS011;17775;57.948;12.514;2023-05-10T02:41:07;5.32;;;2.72;;
31126;SDS011;17775;57.948;12.514;2023-05-10T02:43:34;7.63;;;2.88;;
31126;SDS011;17775;57.948;12.514;2023-05-10T02:46:01;6.97;;;2.92;;
31126;SDS011;17775;57.948;12.514;2023-05-10T02:48:28;4.78;;;2.78;;
31126;SDS011;17775;57.948;12.514;2023-05-10T02:50:55;5.20;;;3.22;;
31126;SDS011;17775;57.948;12.514;2023-05-10T02:53:22;5.18;;;2.90;;
31126;SDS011;17775;57.948;12.514;2023-05-10T02:55:50;7.25;;;3.35;;
31126;SDS011;17775;57.948;12.514;2023-05-10T02:58:18;4.22;;;2.90;;
31126;SDS011;17775;57.948;12.514;2023-05-10T03:00:45;5.78;;;3.10;;
31126;SDS011;17775;57.948;12.514;2023-05-10T03:03:12;5.07;;;2.78;;
31126;SDS011;17775;57.948;12.514;2023-05-10T03:05:39;4.93;;;2.72;;
31126;SDS011;17775;57.948;12.514;2023-05-10T03:08:05;6.10;;;2.90;;
31126;SDS011;17775;57.948;12.514;2023-05-10T03:10:32;9.13;;;4.00;;
31126;SDS011;17775;57.948;12.514;2023-05-10T03:21:02;6.97;;;3.42;;
31126;SDS011;17775;57.948;12.514;2023-05-10T03:23:35;8.98;;;2.90;;
31126;SDS011;17775;57.948;12.514;2023-05-10T03:26:07;8.30;;;3.05;;
31126;SDS011;17775;57.948;12.514;2023-05-10T03:28:34;6.03;;;2.85;;
31126;SDS011;17775;57.948;12.514;2023-05-10T03:31:02;9.43;;;2.90;;
31126;SDS011;17775;57.948;12.514;2023-05-10T03:33:29;4.55;;;3.15;;
31126;SDS011;17775;57.948;12.514;2023-05-10T03:35:55;5.75;;;2.90;;
31126;SDS011;17775;57.948;12.514;2023-05-10T03:38:21;4.13;;;2.78;;
31126;SDS011;17775;57.948;12.514;2023-05-10T03:40:48;8.15;;;3.30;;
31126;SDS011;17775;57.948;12.514;2023-05-10T03:43:17;6.50;;;2.97;;
31126;SDS011;17775;57.948;12.514;2023-05-10T03:45:44;5.85;;;3.47;;
31126;SDS011;17775;57.948;12.514;2023-05-10T03:48:10;4.72;;;3.00;;
31126;SDS011;17775;57.948;12.514;2023-05-10T03:50:37;4.43;;;2.42;;
31126;SDS011;17775;57.948;12.514;2023-05-10T03:53:03;5.82;;;3.42;;
31126;SDS011;17775;57.948;12.514;2023-05-10T03:55:30;7.70;;;3.20;;
31126;SDS011;17775;57.948;12.514;2023-05-10T03:58:00;7.43;;;3.33;;
31126;SDS011;17775;57.948;12.514;2023-05-10T04:00:27;11.98;;;2.80;;
31126;SDS011;17775;57.948;12.514;2023-05-10T04:02:53;7.35;;;3.08;;
31126;SDS011;17775;57.948;12.514;2023-05-10T04:05:20;6.40;;;3.30;;
31126;SDS011;17775;57.948;12.514;2023-05-10T04:07:46;5.03;;;2.80;;
31126;SDS011;17775;57.948;12.514;2023-05-10T04:10:13;5.65;;;2.97;;
31126;SDS011;17775;57.948;12.514;2023-05-10T04:12:40;6.30;;;3.40;;
31126;SDS011;17775;57.948;12.514;2023-05-10T04:15:07;4.53;;;2.63;;
31126;SDS011;17775;57.948;12.514;2023-05-10T04:17:37;6.40;;;3.22;;
31126;SDS011;17775;57.948;12.514;2023-05-10T04:20:04;5.30;;;3.10;;
31126;SDS011;17775;57.948;12.514;2023-05-10T04:22:31;6.57;;;4.68;;
31126;SDS011;17775;57.948;12.514;2023-05-10T04:24:58;6.07;;;3.45;;
31126;SDS011;17775;57.948;12.514;2023-05-10T04:27:24;10.73;;;3.35;;
31126;SDS011;17775;57.948;12.514;2023-05-10T04:29:51;4.85;;;3.13;;
31126;SDS011;17775;57.948;12.514;2023-05-10T04:32:17;9.63;;;3.50;;
31126;SDS011;17775;57.948;12.514;2023-05-10T04:34:44;4.97;;;2.88;;
31126;SDS011;17775;57.948;12.514;2023-05-10T04:37:12;6.95;;;3.40;;
31126;SDS011;17775;57.948;12.514;2023-05-10T04:39:39;4.75;;;2.85;;
31126;SDS011;17775;57.948;12.514;2023-05-10T04:42:07;13.05;;;3.35;;
31126;SDS011;17775;57.948;12.514;2023-05-10T04:44:34;4.85;;;2.97;;
31126;SDS011;17775;57.948;12.514;2023-05-10T04:47:00;7.70;;;3.20;;
31126;SDS011;17775;57.948;12.514;2023-05-10T04:49:28;9.90;;;3.78;;
31126;SDS011;17775;57.948;12.514;2023-05-10T04:51:58;4.97;;;2.88;;
31126;SDS011;17775;57.948;12.514;2023-05-10T04:54:25;10.40;;;3.40;;
31126;SDS011;17775;57.948;12.514;2023-05-10T04:56:51;7.53;;;3.28;;
31126;SDS011;17775;57.948;12.514;2023-05-10T04:59:18;9.18;;;3.00;;
31126;SDS011;17775;57.948;12.514;2023-05-10T05:01:44;8.52;;;3.72;;
31126;SDS011;17775;57.948;12.514;2023-05-10T05:04:10;5.07;;;3.33;;
31126;SDS011;17775;57.948;12.514;2023-05-10T05:06:37;5.25;;;3.20;;
31126;SDS011;17775;57.948;12.514;2023-05-10T05:09:04;8.48;;;3.65;;
31126;SDS011;17775;57.948;12.514;2023-05-10T05:11:30;8.25;;;3.00;;
31126;SDS011;17775;57.948;12.514;2023-05-10T05:13:56;4.47;;;2.80;;
31126;SDS011;17775;57.948;12.514;2023-05-10T05:16:25;7.70;;;3.33;;
31126;SDS011;17775;57.948;12.514;2023-05-10T05:18:52;5.25;;;2.88;;
31126;SDS011;17775;57.948;12.514;2023-05-10T05:21:18;7.32;;;3.10;;
31126;SDS011;17775;57.948;12.514;2023-05-10T05:23:45;5.43;;;3.20;;
31126;SDS011;17775;57.948;12.514;2023-05-10T05:26:12;5.85;;;3.17;;
31126;SDS011;17775;57.948;12.514;2023-05-10T05:28:38;7.70;;;3.03;;
31126;SDS011;17775;57.948;12.514;2023-05-10T05:31:05;7.15;;;3.35;;
31126;SDS011;17775;57.948;12.514;2023-05-10T05:33:32;5.25;;;3.10;;
31126;SDS011;17775;57.948;12.514;2023-05-10T05:36:01;7.38;;;3.00;;
31126;SDS011;17775;57.948;12.514;2023-05-10T05:38:28;10.13;;;3.33;;
31126;SDS011;17775;57.948;12.514;2023-05-10T05:40:54;9.63;;;2.75;;
31126;SDS011;17775;57.948;12.514;2023-05-10T05:43:21;4.22;;;2.80;;
31126;SDS011;17775;57.948;12.514;2023-05-10T05:45:47;8.93;;;3.20;;
31126;SDS011;17775;57.948;12.514;2023-05-10T05:48:14;6.32;;;2.30;;
31126;SDS011;17775;57.948;12.514;2023-05-10T05:50:40;5.00;;;2.67;;
31126;SDS011;17775;57.948;12.514;2023-05-10T05:53:07;5.63;;;2.83;;
31126;SDS011;17775;57.948;12.514;2023-05-10T05:55:34;7.32;;;3.03;;
31126;SDS011;17775;57.948;12.514;2023-05-10T05:58:00;4.82;;;3.15;;
31126;SDS011;17775;57.948;12.514;2023-05-10T06:00:27;8.48;;;3.63;;
31126;SDS011;17775;57.948;12.514;2023-05-10T06:02:53;8.63;;;3.72;;
31126;SDS011;17775;57.948;12.514;2023-05-10T06:05:20;7.05;;;3.20;;
31126;SDS011;17775;57.948;12.514;2023-05-10T06:07:47;5.18;;;3.20;;
31126;SDS011;17775;57.948;12.514;2023-05-10T06:10:13;6.45;;;3.05;;
31126;SDS011;17775;57.948;12.514;2023-05-10T06:12:40;8.13;;;2.70;;
31126;SDS011;17775;57.948;12.514;2023-05-10T06:15:06;5.28;;;3.00;;
31126;SDS011;17775;57.948;12.514;2023-05-10T06:17:33;4.28;;;2.88;;
31126;SDS011;17775;57.948;12.514;2023-05-10T06:19:59;6.82;;;3.05;;
31126;SDS011;17775;57.948;12.514;2023-05-10T06:22:26;7.28;;;3.50;;
31126;SDS011;17775;57.948;12.514;2023-05-10T06:24:52;10.77;;;3.00;;
31126;SDS011;17775;57.948;12.514;2023-05-10T06:27:19;6.15;;;2.70;;
31126;SDS011;17775;57.948;12.514;2023-05-10T06:29:45;9.10;;;2.95;;
31126;SDS011;17775;57.948;12.514;2023-05-10T06:32:12;5.13;;;2.78;;
31126;SDS011;17775;57.948;12.514;2023-05-10T06:34:38;5.78;;;2.80;;
31126;SDS011;17775;57.948;12.514;2023-05-10T06:37:04;6.95;;;2.83;;
31126;SDS011;17775;57.948;12.514;2023-05-10T06:39:31;6.45;;;2.80;;
31126;SDS011;17775;57.948;12.514;2023-05-10T06:41:57;7.22;;;2.92;;
31126;SDS011;17775;57.948;12.514;2023-05-10T06:44:24;8.80;;;2.95;;
31126;SDS011;17775;57.948;12.514;2023-05-10T06:46:50;4.40;;;2.83;;
31126;SDS011;17775;57.948;12.514;2023-05-10T06:49:18;8.27;;;3.08;;
31126;SDS011;17775;57.948;12.514;2023-05-10T06:51:47;4.40;;;2.88;;
31126;SDS011;17775;57.948;12.514;2023-05-10T06:54:14;6.97;;;2.65;;
31126;SDS011;17775;57.948;12.514;2023-05-10T06:56:41;5.32;;;3.17;;
31126;SDS011;17775;57.948;12.514;2023-05-10T06:59:07;5.45;;;2.67;;
31126;SDS011;17775;57.948;12.514;2023-05-10T07:01:34;8.32;;;3.03;;
31126;SDS011;17775;57.948;12.514;2023-05-10T07:04:00;5.13;;;2.85;;
31126;SDS011;17775;57.948;12.514;2023-05-10T07:06:26;6.47;;;3.00;;
31126;SDS011;17775;57.948;12.514;2023-05-10T07:08:59;8.32;;;3.10;;
31126;SDS011;17775;57.948;12.514;2023-05-10T07:11:26;5.25;;;2.70;;
31126;SDS011;17775;57.948;12.514;2023-05-10T07:13:53;8.02;;;3.20;;
31126;SDS011;17775;57.948;12.514;2023-05-10T07:16:19;4.68;;;2.92;;
31126;SDS011;17775;57.948;12.514;2023-05-10T07:18:46;4.18;;;2.45;;
31126;SDS011;17775;57.948;12.514;2023-05-10T07:21:12;6.50;;;2.85;;
31126;SDS011;17775;57.948;12.514;2023-05-10T07:23:39;6.18;;;2.90;;
31126;SDS011;17775;57.948;12.514;2023-05-10T07:26:09;8.93;;;3.40;;
31126;SDS011;17775;57.948;12.514;2023-05-10T07:28:36;5.43;;;2.78;;
31126;SDS011;17775;57.948;12.514;2023-05-10T07:31:03;4.47;;;2.75;;
31126;SDS011;17775;57.948;12.514;2023-05-10T07:33:30;6.20;;;3.15;;
31126;SDS011;17775;57.948;12.514;2023-05-10T07:35:56;5.68;;;2.90;;
31126;SDS011;17775;57.948;12.514;2023-05-10T07:38:22;7.20;;;3.90;;
31126;SDS011;17775;57.948;12.514;2023-05-10T07:40:49;3.78;;;2.60;;
31126;SDS011;17775;57.948;12.514;2023-05-10T07:43:15;7.00;;;3.45;;
31126;SDS011;17775;57.948;12.514;2023-05-10T07:45:42;8.50;;;3.33;;
31126;SDS011;17775;57.948;12.514;2023-05-10T07:48:09;6.07;;;2.85;;
31126;SDS011;17775;57.948;12.514;2023-05-10T07:50:36;5.13;;;2.58;;
31126;SDS011;17775;57.948;12.514;2023-05-10T07:53:02;8.27;;;2.80;;
31126;SDS011;17775;57.948;12.514;2023-05-10T07:55:29;4.57;;;3.03;;
31126;SDS011;17775;57.948;12.514;2023-05-10T07:57:56;5.10;;;2.90;;
31126;SDS011;17775;57.948;12.514;2023-05-10T08:00:22;6.22;;;3.25;;
31126;SDS011;17775;57.948;12.514;2023-05-10T08:02:49;8.02;;;2.80;;
31126;SDS011;17775;57.948;12.514;2023-05-10T08:05:16;5.57;;;2.50;;
31126;SDS011;17775;57.948;12.514;2023-05-10T08:07:42;6.43;;;3.00;;
31126;SDS011;17775;57.948;12.514;2023-05-10T08:10:10;4.65;;;2.83;;
31126;SDS011;17775;57.948;12.514;2023-05-10T08:12:40;4.90;;;2.88;;
31126;SDS011;17775;57.948;12.514;2023-05-10T08:15:06;4.72;;;3.00;;
31126;SDS011;17775;57.948;12.514;2023-05-10T08:17:33;5.75;;;2.90;;
31126;SDS011;17775;57.948;12.514;2023-05-10T08:19:59;7.97;;;2.35;;
31126;SDS011;17775;57.948;12.514;2023-05-10T08:22:26;6.35;;;3.35;;
31126;SDS011;17775;57.948;12.514;2023-05-10T08:24:52;5.82;;;2.90;;
31126;SDS011;17775;57.948;12.514;2023-05-10T08:27:19;9.75;;;3.58;;
31126;SDS011;17775;57.948;12.514;2023-05-10T08:29:45;4.90;;;2.85;;
31126;SDS011;17775;57.948;12.514;2023-05-10T08:32:15;7.60;;;2.58;;
31126;SDS011;17775;57.948;12.514;2023-05-10T08:34:42;5.55;;;2.30;;
31126;SDS011;17775;57.948;12.514;2023-05-10T08:37:08;4.07;;;2.40;;
31126;SDS011;17775;57.948;12.514;2023-05-10T08:39:36;7.00;;;2.22;;
31126;SDS011;17775;57.948;12.514;2023-05-10T08:42:03;7.25;;;2.95;;
31126;SDS011;17775;57.948;12.514;2023-05-10T08:44:31;5.53;;;2.85;;
31126;SDS011;17775;57.948;12.514;2023-05-10T08:46:58;5.40;;;2.30;;
31126;SDS011;17775;57.948;12.514;2023-05-10T08:49:25;4.88;;;3.10;;
31126;SDS011;17775;57.948;12.514;2023-05-10T08:51:54;9.40;;;2.88;;
31126;SDS011;17775;57.948;12.514;2023-05-10T08:54:21;9.88;;;2.83;;
31126;SDS011;17775;57.948;12.514;2023-05-10T08:56:48;6.13;;;3.10;;
31126;SDS011;17775;57.948;12.514;2023-05-10T08:59:15;3.30;;;2.55;;
31126;SDS011;17775;57.948;12.514;2023-05-10T09:01:42;6.30;;;2.45;;
31126;SDS011;17775;57.948;12.514;2023-05-10T09:04:10;4.45;;;2.40;;
31126;SDS011;17775;57.948;12.514;2023-05-10T09:06:36;5.38;;;2.85;;
31126;SDS011;17775;57.948;12.514;2023-05-10T09:09:03;5.70;;;2.88;;
31126;SDS011;17775;57.948;12.514;2023-05-10T09:11:30;3.92;;;2.60;;
31126;SDS011;17775;57.948;12.514;2023-05-10T09:13:57;10.73;;;3.15;;
31126;SDS011;17775;57.948;12.514;2023-05-10T09:16:24;7.70;;;2.65;;
31126;SDS011;17775;57.948;12.514;2023-05-10T09:18:50;9.35;;;2.72;;
31126;SDS011;17775;57.948;12.514;2023-05-10T09:21:18;6.32;;;2.30;;
31126;SDS011;17775;57.948;12.514;2023-05-10T09:23:45;7.05;;;2.40;;
31126;SDS011;17775;57.948;12.514;2023-05-10T09:26:14;3.40;;;2.15;;
31126;SDS011;17775;57.948;12.514;2023-05-10T09:31:46;7.88;;;2.78;;
31126;SDS011;17775;57.948;12.514;2023-05-10T09:34:17;6.07;;;2.22;;
31126;SDS011;17775;57.948;12.514;2023-05-10T09:39:20;4.93;;;2.33;;
31126;SDS011;17775;57.948;12.514;2023-05-10T09:41:46;4.18;;;2.08;;
31126;SDS011;17775;57.948;12.514;2023-05-10T09:44:16;7.95;;;2.65;;
31126;SDS011;17775;57.948;12.514;2023-05-10T09:46:48;4.82;;;2.10;;
31126;SDS011;17775;57.948;12.514;2023-05-10T09:51:41;6.03;;;2.60;;
31126;SDS011;17775;57.948;12.514;2023-05-10T09:54:12;5.57;;;2.03;;
31126;SDS011;17775;57.948;12.514;2023-05-10T09:56:39;4.78;;;2.63;;
31126;SDS011;17775;57.948;12.514;2023-05-10T09:59:07;4.28;;;2.65;;
31126;SDS011;17775;57.948;12.514;2023-05-10T10:01:34;6.20;;;2.25;;
31126;SDS011;17775;57.948;12.514;2023-05-10T10:04:05;4.13;;;2.20;;
31126;SDS011;17775;57.948;12.514;2023-05-10T10:08:58;5.90;;;2.53;;
31126;SDS011;17775;57.948;12.514;2023-05-10T10:11:25;6.22;;;2.60;;
31126;SDS011;17775;57.948;12.514;2023-05-10T10:13:51;4.22;;;2.58;;
31126;SDS011;17775;57.948;12.514;2023-05-10T10:16:18;5.13;;;2.42;;
31126;SDS011;17775;57.948;12.514;2023-05-10T10:18:47;5.47;;;2.75;;
31126;SDS011;17775;57.948;12.514;2023-05-10T10:21:59;7.68;;;2.85;;
31126;SDS011;17775;57.948;12.514;2023-05-10T10:24:46;7.93;;;2.63;;
31126;SDS011;17775;57.948;12.514;2023-05-10T10:27:59;6.97;;;2.63;;
31126;SDS011;17775;57.948;12.514;2023-05-10T10:35:00;3.22;;;1.90;;
31126;SDS011;17775;57.948;12.514;2023-05-10T10:37:40;4.43;;;1.95;;
31126;SDS011;17775;57.948;12.514;2023-05-10T10:40:29;7.40;;;2.67;;
31126;SDS011;17775;57.948;12.514;2023-05-10T10:42:54;6.35;;;2.25;;
31126;SDS011;17775;57.948;12.514;2023-05-10T10:45:21;4.30;;;2.25;;
31126;SDS011;17775;57.948;12.514;2023-05-10T10:47:48;6.28;;;2.40;;
31126;SDS011;17775;57.948;12.514;2023-05-10T10:50:16;4.25;;;2.30;;
31126;SDS011;17775;57.948;12.514;2023-05-10T10:52:45;3.67;;;2.20;;
31126;SDS011;17775;57.948;12.514;2023-05-10T10:57:49;3.40;;;2.15;;
31126;SDS011;17775;57.948;12.514;2023-05-10T11:02:52;5.45;;;2.13;;
31126;SDS011;17775;57.948;12.514;2023-05-10T11:05:33;4.45;;;2.00;;
31126;SDS011;17775;57.948;12.514;2023-05-10T11:10:51;3.80;;;1.80;;
31126;SDS011;17775;57.948;12.514;2023-05-10T11:13:26;4.05;;;2.15;;
31126;SDS011;17775;57.948;12.514;2023-05-10T11:15:53;5.22;;;2.30;;
31126;SDS011;17775;57.948;12.514;2023-05-10T11:18:20;5.43;;;2.60;;
31126;SDS011;17775;57.948;12.514;2023-05-10T11:20:50;6.03;;;2.20;;
31126;SDS011;17775;57.948;12.514;2023-05-10T11:23:17;4.38;;;2.00;;
31126;SDS011;17775;57.948;12.514;2023-05-10T11:25:45;2.65;;;2.05;;
31126;SDS011;17775;57.948;12.514;2023-05-10T11:28:12;3.42;;;2.38;;
31126;SDS011;17775;57.948;12.514;2023-05-10T11:30:39;3.58;;;2.35;;
31126;SDS011;17775;57.948;12.514;2023-05-10T11:33:06;4.65;;;2.17;;
31126;SDS011;17775;57.948;12.514;2023-05-10T11:35:37;4.72;;;1.83;;
31126;SDS011;17775;57.948;12.514;2023-05-10T11:38:08;3.65;;;1.95;;
31126;SDS011;17775;57.948;12.514;2023-05-10T11:40:36;3.85;;;2.05;;
31126;SDS011;17775;57.948;12.514;2023-05-10T11:43:03;2.58;;;2.00;;
31126;SDS011;17775;57.948;12.514;2023-05-10T11:45:32;6.00;;;2.10;;
31126;SDS011;17775;57.948;12.514;2023-05-10T11:47:59;5.50;;;2.23;;
31126;SDS011;17775;57.948;12.514;2023-05-10T11:50:26;3.22;;;1.90;;
31126;SDS011;17775;57.948;12.514;2023-05-10T11:52:56;5.28;;;1.95;;
31126;SDS011;17775;57.948;12.514;2023-05-10T11:55:23;4.53;;;2.15;;
31126;SDS011;17775;57.948;12.514;2023-05-10T11:57:53;4.20;;;1.83;;
31126;SDS011;17775;57.948;12.514;2023-05-10T12:00:20;5.05;;;1.98;;
31126;SDS011;17775;57.948;12.514;2023-05-10T12:02:46;5.90;;;2.33;;
31126;SDS011;17775;57.948;12.514;2023-05-10T12:05:13;3.13;;;2.17;;
31126;SDS011;17775;57.948;12.514;2023-05-10T12:07:40;4.07;;;2.20;;
31126;SDS011;17775;57.948;12.514;2023-05-10T12:10:10;2.75;;;2.15;;
31126;SDS011;17775;57.948;12.514;2023-05-10T12:12:42;4.68;;;1.75;;
31126;SDS011;17775;57.948;12.514;2023-05-10T12:15:22;2.67;;;1.65;;
31126;SDS011;17775;57.948;12.514;2023-05-10T12:17:49;3.78;;;2.50;;
31126;SDS011;17775;57.948;12.514;2023-05-10T12:22:46;3.20;;;2.72;;
31126;SDS011;17775;57.948;12.514;2023-05-10T12:25:12;4.75;;;2.22;;
31126;SDS011;17775;57.948;12.514;2023-05-10T12:27:39;3.67;;;2.40;;
31126;SDS011;17775;57.948;12.514;2023-05-10T12:30:06;3.00;;;2.10;;
31126;SDS011;17775;57.948;12.514;2023-05-10T12:32:37;4.45;;;2.03;;
31126;SDS011;17775;57.948;12.514;2023-05-10T12:35:04;4.53;;;2.55;;
31126;SDS011;17775;57.948;12.514;2023-05-10T12:37:30;5.20;;;1.90;;
31126;SDS011;17775;57.948;12.514;2023-05-10T12:39:57;3.38;;;2.05;;
31126;SDS011;17775;57.948;12.514;2023-05-10T12:42:23;3.75;;;2.15;;
31126;SDS011;17775;57.948;12.514;2023-05-10T12:44:58;3.92;;;1.70;;
31126;SDS011;17775;57.948;12.514;2023-05-10T12:47:25;4.50;;;1.85;;
31126;SDS011;17775;57.948;12.514;2023-05-10T12:49:51;3.53;;;2.20;;
31126;SDS011;17775;57.948;12.514;2023-05-10T12:52:18;2.92;;;2.00;;
31126;SDS011;17775;57.948;12.514;2023-05-10T12:54:44;2.78;;;2.13;;
31126;SDS011;17775;57.948;12.514;2023-05-10T12:57:10;2.38;;;1.77;;
31126;SDS011;17775;57.948;12.514;2023-05-10T12:59:37;2.72;;;1.92;;
31126;SDS011;17775;57.948;12.514;2023-05-10T13:02:04;2.13;;;1.80;;
31126;SDS011;17775;57.948;12.514;2023-05-10T13:04:30;2.53;;;2.00;;
31126;SDS011;17775;57.948;12.514;2023-05-10T13:06:57;2.97;;;1.77;;
31126;SDS011;17775;57.948;12.514;2023-05-10T13:09:28;2.88;;;1.98;;
31126;SDS011;17775;57.948;12.514;2023-05-10T13:11:55;3.30;;;2.28;;
31126;SDS011;17775;57.948;12.514;2023-05-10T13:14:22;5.55;;;2.10;;
31126;SDS011;17775;57.948;12.514;2023-05-10T13:16:48;2.30;;;2.10;;
31126;SDS011;17775;57.948;12.514;2023-05-10T13:19:15;2.90;;;1.95;;
31126;SDS011;17775;57.948;12.514;2023-05-10T13:21:42;3.72;;;1.95;;
31126;SDS011;17775;57.948;12.514;2023-05-10T13:24:12;3.03;;;1.88;;
31126;SDS011;17775;57.948;12.514;2023-05-10T13:26:43;2.50;;;1.83;;
31126;SDS011;17775;57.948;12.514;2023-05-10T13:29:09;4.15;;;2.13;;
31126;SDS011;17775;57.948;12.514;2023-05-10T13:31:36;4.70;;;2.03;;
31126;SDS011;17775;57.948;12.514;2023-05-10T13:34:03;3.33;;;2.20;;
31126;SDS011;17775;57.948;12.514;2023-05-10T13:36:29;4.05;;;1.90;;
31126;SDS011;17775;57.948;12.514;2023-05-10T13:38:56;4.28;;;2.03;;
31126;SDS011;17775;57.948;12.514;2023-05-10T13:41:25;6.43;;;2.17;;
31126;SDS011;17775;57.948;12.514;2023-05-10T13:43:51;6.68;;;2.65;;
31126;SDS011;17775;57.948;12.514;2023-05-10T13:46:18;4.90;;;2.00;;
31126;SDS011;17775;57.948;12.514;2023-05-10T13:48:44;3.55;;;2.00;;
31126;SDS011;17775;57.948;12.514;2023-05-10T13:51:11;7.25;;;2.35;;
31126;SDS011;17775;57.948;12.514;2023-05-10T13:53:37;2.40;;;1.90;;
31126;SDS011;17775;57.948;12.514;2023-05-10T13:56:04;4.85;;;2.00;;
31126;SDS011;17775;57.948;12.514;2023-05-10T13:58:30;6.30;;;2.67;;
31126;SDS011;17775;57.948;12.514;2023-05-10T14:00:57;2.55;;;2.10;;
31126;SDS011;17775;57.948;12.514;2023-05-10T14:03:24;5.10;;;2.00;;
31126;SDS011;17775;57.948;12.514;2023-05-10T14:05:50;3.17;;;2.17;;
31126;SDS011;17775;57.948;12.514;2023-05-10T14:08:17;3.25;;;2.30;;
31126;SDS011;17775;57.948;12.514;2023-05-10T14:10:43;2.33;;;1.80;;
31126;SDS011;17775;57.948;12.514;2023-05-10T14:13:10;3.13;;;1.95;;
31126;SDS011;17775;57.948;12.514;2023-05-10T14:15:36;3.28;;;2.17;;
31126;SDS011;17775;57.948;12.514;2023-05-10T14:18:03;3.20;;;1.92;;
31126;SDS011;17775;57.948;12.514;2023-05-10T14:20:29;3.63;;;2.20;;
31126;SDS011;17775;57.948;12.514;2023-05-10T14:22:59;3.05;;;1.63;;
31126;SDS011;17775;57.948;12.514;2023-05-10T14:25:25;8.38;;;2.30;;
31126;SDS011;17775;57.948;12.514;2023-05-10T14:27:52;2.58;;;1.88;;
31126;SDS011;17775;57.948;12.514;2023-05-10T14:30:20;2.70;;;2.00;;
31126;SDS011;17775;57.948;12.514;2023-05-10T14:32:47;2.53;;;1.90;;
31126;SDS011;17775;57.948;12.514;2023-05-10T14:35:13;3.58;;;2.13;;
31126;SDS011;17775;57.948;12.514;2023-05-10T14:37:47;3.33;;;2.03;;
31126;SDS011;17775;57.948;12.514;2023-05-10T14:40:14;4.65;;;1.80;;
31126;SDS011;17775;57.948;12.514;2023-05-10T14:42:41;3.45;;;1.70;;
31126;SDS011;17775;57.948;12.514;2023-05-10T14:45:08;2.35;;;2.08;;
31126;SDS011;17775;57.948;12.514;2023-05-10T14:47:35;3.30;;;1.73;;
31126;SDS011;17775;57.948;12.514;2023-05-10T14:50:02;3.42;;;2.00;;
31126;SDS011;17775;57.948;12.514;2023-05-10T14:52:29;3.15;;;2.15;;
31126;SDS011;17775;57.948;12.514;2023-05-10T14:54:58;4.13;;;1.80;;
31126;SDS011;17775;57.948;12.514;2023-05-10T14:57:26;4.82;;;1.73;;
31126;SDS011;17775;57.948;12.514;2023-05-10T14:59:55;1.87;;;1.77;;
31126;SDS011;17775;57.948;12.514;2023-05-10T15:02:23;5.47;;;1.83;;
31126;SDS011;17775;57.948;12.514;2023-05-10T15:04:50;4.35;;;1.60;;
31126;SDS011;17775;57.948;12.514;2023-05-10T15:07:17;2.42;;;2.00;;
31126;SDS011;17775;57.948;12.514;2023-05-10T15:09:44;6.25;;;2.28;;
31126;SDS011;17775;57.948;12.514;2023-05-10T15:12:11;2.58;;;1.83;;
31126;SDS011;17775;57.948;12.514;2023-05-10T15:14:37;6.30;;;2.72;;
31126;SDS011;17775;57.948;12.514;2023-05-10T15:17:05;3.25;;;1.63;;
31126;SDS011;17775;57.948;12.514;2023-05-10T15:19:32;2.80;;;2.00;;
31126;SDS011;17775;57.948;12.514;2023-05-10T15:21:59;3.35;;;1.77;;
31126;SDS011;17775;57.948;12.514;2023-05-10T15:24:26;4.75;;;1.90;;